Terminal Aerodrome Forecast
Issued by NWS Jackson, MS

Home | Current Version | Previous Version | Text Only | Print | Product List | Glossary On
Versions: 1 2 3 4 5 6 7 8 9 10 11 12 13 14 15 16 17 18 19 20 21 22 23 24
000
FTUS44 KJAN 050534
TAFMEI
TAF
KMEI 050534Z 0506/0606 19004KT 6SM BR VCSH FEW009 SCT050 BKN150
     FM050900 20003KT 5SM BR SCT009 SCT050 BKN150
     FM051300 22006KT 5SM -TSRA SCT020 BKN040CB OVC120
     FM051800 23006KT P6SM VCSH SCT030 BKN050 BKN150
     FM060000 21004KT P6SM FEW030 SCT050 BKN150=

USA.gov is the U.S. government's official web portal to all federal, state and local government web resources and services.